sensor_id;sensor_type;location;lat;lon;timestamp;temperature;humidity
5466;DHT22;2755;50.728;7.108;2022-12-18T00:03:51;-6.30;99.90
5466;DHT22;2755;50.728;7.108;2022-12-18T00:06:19;-6.50;99.90
5466;DHT22;2755;50.728;7.108;2022-12-18T00:08:44;-6.40;99.90
5466;DHT22;2755;50.728;7.108;2022-12-18T00:11:21;-6.40;99.90
5466;DHT22;2755;50.728;7.108;2022-12-18T00:13:47;-6.50;99.90
5466;DHT22;2755;50.728;7.108;2022-12-18T00:16:15;-6.40;99.90
5466;DHT22;2755;50.728;7.108;2022-12-18T00:18:41;-6.30;99.90
5466;DHT22;2755;50.728;7.108;2022-12-18T00:21:09;-6.40;99.90
5466;DHT22;2755;50.728;7.108;2022-12-18T00:23:36;-6.00;99.90
5466;DHT22;2755;50.728;7.108;2022-12-18T00:26:04;-6.30;99.90
5466;DHT22;2755;50.728;7.108;2022-12-18T00:28:30;-6.30;99.90
5466;DHT22;2755;50.728;7.108;2022-12-18T00:31:03;-6.40;99.90
5466;DHT22;2755;50.728;7.108;2022-12-18T00:36:10;-6.40;99.90
5466;DHT22;2755;50.728;7.108;2022-12-18T00:38:36;-6.40;99.90
5466;DHT22;2755;50.728;7.108;2022-12-18T00:45:54;-6.20;99.90
5466;DHT22;2755;50.728;7.108;2022-12-18T00:48:20;-6.70;99.90
5466;DHT22;2755;50.728;7.108;2022-12-18T00:50:47;-6.50;99.90
5466;DHT22;2755;50.728;7.108;2022-12-18T00:53:13;-6.30;99.90
5466;DHT22;2755;50.728;7.108;2022-12-18T01:00:31;-6.40;99.90
5466;DHT22;2755;50.728;7.108;2022-12-18T01:02:57;-6.40;99.90
5466;DHT22;2755;50.728;7.108;2022-12-18T01:10:14;-6.60;99.90
5466;DHT22;2755;50.728;7.108;2022-12-18T01:15:07;-6.40;99.90
5466;DHT22;2755;50.728;7.108;2022-12-18T01:17:33;-6.30;99.90
5466;DHT22;2755;50.728;7.108;2022-12-18T01:19:59;-6.20;99.90
5466;DHT22;2755;50.728;7.108;2022-12-18T01:24:51;-6.10;99.90
5466;DHT22;2755;50.728;7.108;2022-12-18T01:27:16;-6.30;99.90
5466;DHT22;2755;50.728;7.108;2022-12-18T01:32:08;-6.40;99.90
5466;DHT22;2755;50.728;7.108;2022-12-18T01:34:36;-6.40;99.90
5466;DHT22;2755;50.728;7.108;2022-12-18T01:37:03;-6.30;99.90
5466;DHT22;2755;50.728;7.108;2022-12-18T01:39:28;-6.50;99.90
5466;DHT22;2755;50.728;7.108;2022-12-18T01:41:54;-6.30;99.90
5466;DHT22;2755;50.728;7.108;2022-12-18T01:45:01;-6.40;99.90
5466;DHT22;2755;50.728;7.108;2022-12-18T01:47:47;-5.40;99.90
5466;DHT22;2755;50.728;7.108;2022-12-18T01:50:20;-6.50;99.90
5466;DHT22;2755;50.728;7.108;2022-12-18T01:52:53;-5.60;99.90
5466;DHT22;2755;50.728;7.108;2022-12-18T01:55:22;-6.70;99.90
5466;DHT22;2755;50.728;7.108;2022-12-18T01:57:52;-6.20;99.90
5466;DHT22;2755;50.728;7.108;2022-12-18T02:00:19;-6.40;99.90
5466;DHT22;2755;50.728;7.108;2022-12-18T02:02:46;-6.40;99.90
5466;DHT22;2755;50.728;7.108;2022-12-18T02:05:15;-6.50;99.90
5466;DHT22;2755;50.728;7.108;2022-12-18T02:08:16;-6.00;99.90
5466;DHT22;2755;50.728;7.108;2022-12-18T02:10:53;-7.10;99.90
5466;DHT22;2755;50.728;7.108;2022-12-18T02:13:20;-6.50;99.90
5466;DHT22;2755;50.728;7.108;2022-12-18T02:16:00;-6.50;99.90
5466;DHT22;2755;50.728;7.108;2022-12-18T02:18:32;-6.80;99.90
5466;DHT22;2755;50.728;7.108;2022-12-18T02:21:25;-7.00;99.90
5466;DHT22;2755;50.728;7.108;2022-12-18T02:26:38;-7.00;99.90
5466;DHT22;2755;50.728;7.108;2022-12-18T02:29:20;-6.70;99.90
5466;DHT22;2755;50.728;7.108;2022-12-18T02:31:52;-6.50;99.90
5466;DHT22;2755;50.728;7.108;2022-12-18T02:34:22;-6.70;99.90
5466;DHT22;2755;50.728;7.108;2022-12-18T02:36:51;-6.90;99.90
5466;DHT22;2755;50.728;7.108;2022-12-18T02:39:19;-6.80;99.90
5466;DHT22;2755;50.728;7.108;2022-12-18T02:41:46;-7.10;99.90
5466;DHT22;2755;50.728;7.108;2022-12-18T02:44:14;-6.60;99.90
5466;DHT22;2755;50.728;7.108;2022-12-18T02:46:43;-6.20;99.90
5466;DHT22;2755;50.728;7.108;2022-12-18T02:51:48;-6.60;99.90
5466;DHT22;2755;50.728;7.108;2022-12-18T02:57:50;-6.10;99.90
5466;DHT22;2755;50.728;7.108;2022-12-18T03:00:24;-6.60;99.90
5466;DHT22;2755;50.728;7.108;2022-12-18T03:03:19;-6.70;99.90
5466;DHT22;2755;50.728;7.108;2022-12-18T03:06:01;-6.60;99.90
5466;DHT22;2755;50.728;7.108;2022-12-18T03:08:29;-6.90;99.90
5466;DHT22;2755;50.728;7.108;2022-12-18T03:11:10;-6.80;99.90
5466;DHT22;2755;50.728;7.108;2022-12-18T03:13:54;-6.90;99.90
5466;DHT22;2755;50.728;7.108;2022-12-18T03:16:27;-6.80;99.90
5466;DHT22;2755;50.728;7.108;2022-12-18T03:19:00;-6.90;99.90
5466;DHT22;2755;50.728;7.108;2022-12-18T03:21:34;-7.00;99.90
5466;DHT22;2755;50.728;7.108;2022-12-18T03:24:05;-6.80;99.90
5466;DHT22;2755;50.728;7.108;2022-12-18T03:26:32;-6.80;99.90
5466;DHT22;2755;50.728;7.108;2022-12-18T03:29:09;-6.50;99.90
5466;DHT22;2755;50.728;7.108;2022-12-18T03:31:40;-6.20;99.90
5466;DHT22;2755;50.728;7.108;2022-12-18T03:34:13;-6.90;99.90
5466;DHT22;2755;50.728;7.108;2022-12-18T03:36:40;-7.50;99.90
5466;DHT22;2755;50.728;7.108;2022-12-18T03:39:06;-7.40;99.90
5466;DHT22;2755;50.728;7.108;2022-12-18T03:41:32;-6.40;99.90
5466;DHT22;2755;50.728;7.108;2022-12-18T03:49:20;-6.90;99.90
5466;DHT22;2755;50.728;7.108;2022-12-18T03:52:01;-7.50;99.90
5466;DHT22;2755;50.728;7.108;2022-12-18T03:54:30;-6.90;99.90
5466;DHT22;2755;50.728;7.108;2022-12-18T03:57:03;-6.80;99.90
5466;DHT22;2755;50.728;7.108;2022-12-18T03:59:30;-6.80;99.90
5466;DHT22;2755;50.728;7.108;2022-12-18T04:01:57;-7.00;99.90
5466;DHT22;2755;50.728;7.108;2022-12-18T04:04:25;-6.70;99.90
5466;DHT22;2755;50.728;7.108;2022-12-18T04:06:52;-7.10;99.90
5466;DHT22;2755;50.728;7.108;2022-12-18T04:09:19;-6.80;99.90
5466;DHT22;2755;50.728;7.108;2022-12-18T04:11:46;-7.00;99.90
5466;DHT22;2755;50.728;7.108;2022-12-18T04:14:12;-7.30;99.90
5466;DHT22;2755;50.728;7.108;2022-12-18T04:16:37;-6.80;99.90
5466;DHT22;2755;50.728;7.108;2022-12-18T04:19:03;-7.30;99.90
5466;DHT22;2755;50.728;7.108;2022-12-18T04:21:29;-7.40;99.90
5466;DHT22;2755;50.728;7.108;2022-12-18T04:23:55;-7.50;99.90
5466;DHT22;2755;50.728;7.108;2022-12-18T04:26:20;-7.00;99.90
5466;DHT22;2755;50.728;7.108;2022-12-18T04:28:46;-6.90;99.90
5466;DHT22;2755;50.728;7.108;2022-12-18T04:31:12;-7.00;99.90
5466;DHT22;2755;50.728;7.108;2022-12-18T04:33:38;-7.10;99.90
5466;DHT22;2755;50.728;7.108;2022-12-18T04:36:04;-7.60;99.90
5466;DHT22;2755;50.728;7.108;2022-12-18T04:38:30;-7.00;99.90
5466;DHT22;2755;50.728;7.108;2022-12-18T04:40:55;-7.00;99.90
5466;DHT22;2755;50.728;7.108;2022-12-18T04:43:21;-6.90;99.90
5466;DHT22;2755;50.728;7.108;2022-12-18T04:45:46;-7.10;99.90
5466;DHT22;2755;50.728;7.108;2022-12-18T04:48:12;-7.10;99.90
5466;DHT22;2755;50.728;7.108;2022-12-18T04:50:37;-6.80;99.90
5466;DHT22;2755;50.728;7.108;2022-12-18T04:53:03;-7.00;99.90
5466;DHT22;2755;50.728;7.108;2022-12-18T04:55:29;-6.90;99.90
5466;DHT22;2755;50.728;7.108;2022-12-18T04:57:54;-7.00;99.90
5466;DHT22;2755;50.728;7.108;2022-12-18T05:00:20;-7.10;99.90
5466;DHT22;2755;50.728;7.108;2022-12-18T05:02:45;-7.10;99.90
5466;DHT22;2755;50.728;7.108;2022-12-18T05:05:11;-7.30;99.90
5466;DHT22;2755;50.728;7.108;2022-12-18T05:07:36;-6.90;99.90
5466;DHT22;2755;50.728;7.108;2022-12-18T05:10:06;-7.00;99.90
5466;DHT22;2755;50.728;7.108;2022-12-18T05:12:32;-6.90;99.90
5466;DHT22;2755;50.728;7.108;2022-12-18T05:14:57;-6.80;99.90
5466;DHT22;2755;50.728;7.108;2022-12-18T05:17:23;-7.20;99.90
5466;DHT22;2755;50.728;7.108;2022-12-18T05:19:48;-7.30;99.90
5466;DHT22;2755;50.728;7.108;2022-12-18T05:22:14;-7.30;99.90
5466;DHT22;2755;50.728;7.108;2022-12-18T05:29:32;-7.30;99.90
5466;DHT22;2755;50.728;7.108;2022-12-18T05:31:58;-6.50;99.90
5466;DHT22;2755;50.728;7.108;2022-12-18T05:34:23;-6.40;99.90
5466;DHT22;2755;50.728;7.108;2022-12-18T05:36:49;-7.10;99.90
5466;DHT22;2755;50.728;7.108;2022-12-18T05:39:14;-7.00;99.90
5466;DHT22;2755;50.728;7.108;2022-12-18T05:41:40;-6.70;99.90
5466;DHT22;2755;50.728;7.108;2022-12-18T05:44:05;-6.70;99.90
5466;DHT22;2755;50.728;7.108;2022-12-18T05:48:59;-6.20;99.90
5466;DHT22;2755;50.728;7.108;2022-12-18T05:51:26;-6.60;99.90
5466;DHT22;2755;50.728;7.108;2022-12-18T05:53:52;-7.70;99.90
5466;DHT22;2755;50.728;7.108;2022-12-18T05:56:20;-7.00;99.90
5466;DHT22;2755;50.728;7.108;2022-12-18T05:58:47;-7.30;99.90
5466;DHT22;2755;50.728;7.108;2022-12-18T06:01:24;-7.00;99.90
5466;DHT22;2755;50.728;7.108;2022-12-18T06:03:50;-6.70;99.90
5466;DHT22;2755;50.728;7.108;2022-12-18T06:06:24;-6.60;99.90
5466;DHT22;2755;50.728;7.108;2022-12-18T06:08:50;-6.80;99.90
5466;DHT22;2755;50.728;7.108;2022-12-18T06:11:18;-7.20;99.90
5466;DHT22;2755;50.728;7.108;2022-12-18T06:16:10;-7.30;99.90
5466;DHT22;2755;50.728;7.108;2022-12-18T06:18:39;-7.30;99.90
5466;DHT22;2755;50.728;7.108;2022-12-18T06:21:04;-6.80;99.90
5466;DHT22;2755;50.728;7.108;2022-12-18T06:23:30;-7.10;99.90
5466;DHT22;2755;50.728;7.108;2022-12-18T06:25:56;-7.40;99.90
5466;DHT22;2755;50.728;7.108;2022-12-18T06:30:48;-7.40;99.90
5466;DHT22;2755;50.728;7.108;2022-12-18T06:33:14;-7.50;99.90
5466;DHT22;2755;50.728;7.108;2022-12-18T06:35:40;-7.60;99.90
5466;DHT22;2755;50.728;7.108;2022-12-18T06:38:06;-7.10;99.90
5466;DHT22;2755;50.728;7.108;2022-12-18T06:40:32;-7.20;99.90
5466;DHT22;2755;50.728;7.108;2022-12-18T06:42:58;-7.10;99.90
5466;DHT22;2755;50.728;7.108;2022-12-18T06:45:23;-6.90;99.90
5466;DHT22;2755;50.728;7.108;2022-12-18T06:47:49;-7.40;99.90
5466;DHT22;2755;50.728;7.108;2022-12-18T06:50:15;-6.80;99.90
5466;DHT22;2755;50.728;7.108;2022-12-18T06:52:40;-7.30;99.90
5466;DHT22;2755;50.728;7.108;2022-12-18T06:55:11;-6.80;99.90
5466;DHT22;2755;50.728;7.108;2022-12-18T06:57:37;-6.30;99.90
5466;DHT22;2755;50.728;7.108;2022-12-18T07:00:04;-7.10;99.90
5466;DHT22;2755;50.728;7.108;2022-12-18T07:02:31;-7.20;99.90
5466;DHT22;2755;50.728;7.108;2022-12-18T07:04:56;-7.70;99.90
5466;DHT22;2755;50.728;7.108;2022-12-18T07:07:22;-6.90;99.90
5466;DHT22;2755;50.728;7.108;2022-12-18T07:09:49;-6.80;99.90
5466;DHT22;2755;50.728;7.108;2022-12-18T07:12:15;-6.80;99.90
5466;DHT22;2755;50.728;7.108;2022-12-18T07:14:41;-6.80;99.90
5466;DHT22;2755;50.728;7.108;2022-12-18T07:17:06;-6.50;99.90
5466;DHT22;2755;50.728;7.108;2022-12-18T07:19:32;-6.70;99.90
5466;DHT22;2755;50.728;7.108;2022-12-18T07:21:58;-6.70;99.90
5466;DHT22;2755;50.728;7.108;2022-12-18T07:24:24;-6.90;99.90
5466;DHT22;2755;50.728;7.108;2022-12-18T07:26:49;-7.10;99.90
5466;DHT22;2755;50.728;7.108;2022-12-18T07:29:15;-7.30;99.90
5466;DHT22;2755;50.728;7.108;2022-12-18T07:31:40;-6.60;99.90
5466;DHT22;2755;50.728;7.108;2022-12-18T07:34:10;-7.20;99.90
5466;DHT22;2755;50.728;7.108;2022-12-18T07:36:36;-7.30;99.90
5466;DHT22;2755;50.728;7.108;2022-12-18T07:41:28;-6.90;99.90
5466;DHT22;2755;50.728;7.108;2022-12-18T07:48:45;-7.20;99.90
5466;DHT22;2755;50.728;7.108;2022-12-18T07:51:11;-7.20;99.90
5466;DHT22;2755;50.728;7.108;2022-12-18T07:53:39;-6.80;99.90
5466;DHT22;2755;50.728;7.108;2022-12-18T07:56:08;-7.00;99.90
5466;DHT22;2755;50.728;7.108;2022-12-18T07:58:35;-6.90;99.90
5466;DHT22;2755;50.728;7.108;2022-12-18T08:01:09;-7.10;99.90
5466;DHT22;2755;50.728;7.108;2022-12-18T08:03:35;-6.80;99.90
5466;DHT22;2755;50.728;7.108;2022-12-18T08:06:03;-6.70;99.90
5466;DHT22;2755;50.728;7.108;2022-12-18T08:08:29;-6.40;99.90
5466;DHT22;2755;50.728;7.108;2022-12-18T08:10:55;-6.20;99.90
5466;DHT22;2755;50.728;7.108;2022-12-18T08:13:21;-5.90;99.90
5466;DHT22;2755;50.728;7.108;2022-12-18T08:15:54;-5.70;99.90
5466;DHT22;2755;50.728;7.108;2022-12-18T08:18:20;-5.40;99.90
5466;DHT22;2755;50.728;7.108;2022-12-18T08:20:46;-5.10;99.90
5466;DHT22;2755;50.728;7.108;2022-12-18T08:23:11;-5.20;99.90
5466;DHT22;2755;50.728;7.108;2022-12-18T08:25:37;-4.80;99.90
5466;DHT22;2755;50.728;7.108;2022-12-18T08:30:28;-4.80;99.90
5466;DHT22;2755;50.728;7.108;2022-12-18T08:35:20;-4.90;99.90
5466;DHT22;2755;50.728;7.108;2022-12-18T08:37:46;-5.00;99.90
5466;DHT22;2755;50.728;7.108;2022-12-18T08:40:11;-4.90;99.90
5466;DHT22;2755;50.728;7.108;2022-12-18T08:42:38;-5.00;99.90
5466;DHT22;2755;50.728;7.108;2022-12-18T08:45:22;-5.20;99.90
5466;DHT22;2755;50.728;7.108;2022-12-18T08:47:47;-4.90;99.90
5466;DHT22;2755;50.728;7.108;2022-12-18T08:50:13;-4.10;99.90
5466;DHT22;2755;50.728;7.108;2022-12-18T08:52:38;-4.80;99.90
5466;DHT22;2755;50.728;7.108;2022-12-18T08:55:04;-4.90;99.90
5466;DHT22;2755;50.728;7.108;2022-12-18T08:57:30;-4.60;99.90
5466;DHT22;2755;50.728;7.108;2022-12-18T08:59:55;-4.50;99.90
5466;DHT22;2755;50.728;7.108;2022-12-18T09:02:21;-4.70;99.90
5466;DHT22;2755;50.728;7.108;2022-12-18T09:04:47;-4.80;99.90
5466;DHT22;2755;50.728;7.108;2022-12-18T09:07:13;-4.20;99.90
5466;DHT22;2755;50.728;7.108;2022-12-18T09:09:38;-4.30;99.90
5466;DHT22;2755;50.728;7.108;2022-12-18T09:12:04;-3.50;99.90
5466;DHT22;2755;50.728;7.108;2022-12-18T09:14:29;-4.00;99.90
5466;DHT22;2755;50.728;7.108;2022-12-18T09:16:55;-4.20;99.90
5466;DHT22;2755;50.728;7.108;2022-12-18T09:19:20;-3.70;99.90
5466;DHT22;2755;50.728;7.108;2022-12-18T09:24:13;-3.60;99.90
5466;DHT22;2755;50.728;7.108;2022-12-18T09:26:39;-3.70;99.90
5466;DHT22;2755;50.728;7.108;2022-12-18T09:29:04;-2.90;99.90
5466;DHT22;2755;50.728;7.108;2022-12-18T09:31:32;-3.70;99.90
5466;DHT22;2755;50.728;7.108;2022-12-18T09:33:58;-2.70;99.90
5466;DHT22;2755;50.728;7.108;2022-12-18T09:38:50;-2.80;99.90
5466;DHT22;2755;50.728;7.108;2022-12-18T09:44:00;-2.40;99.90
5466;DHT22;2755;50.728;7.108;2022-12-18T09:46:34;-2.30;99.90
5466;DHT22;2755;50.728;7.108;2022-12-18T09:49:07;-2.20;99.90
5466;DHT22;2755;50.728;7.108;2022-12-18T09:51:39;-2.30;99.90
5466;DHT22;2755;50.728;7.108;2022-12-18T09:54:20;-2.10;99.90
5466;DHT22;2755;50.728;7.108;2022-12-18T09:56:47;-2.40;99.90
5466;DHT22;2755;50.728;7.108;2022-12-18T09:59:23;-1.10;99.90
5466;DHT22;2755;50.728;7.108;2022-12-18T10:01:50;-2.10;99.90
5466;DHT22;2755;50.728;7.108;2022-12-18T10:04:15;-2.20;99.90
5466;DHT22;2755;50.728;7.108;2022-12-18T10:07:04;-2.40;99.90
5466;DHT22;2755;50.728;7.108;2022-12-18T10:13:15;-2.80;99.90
5466;DHT22;2755;50.728;7.108;2022-12-18T10:15:27;-2.50;99.90
5466;DHT22;2755;50.728;7.108;2022-12-18T10:28:14;-2.40;99.90
5466;DHT22;2755;50.728;7.108;2022-12-18T10:30:42;-2.60;99.90
5466;DHT22;2755;50.728;7.108;2022-12-18T10:33:23;-2.70;99.90
5466;DHT22;2755;50.728;7.108;2022-12-18T10:35:52;-2.50;99.90
5466;DHT22;2755;50.728;7.108;2022-12-18T10:51:33;-2.50;99.90
5466;DHT22;2755;50.728;7.108;2022-12-18T10:54:03;-2.50;99.90
5466;DHT22;2755;50.728;7.108;2022-12-18T10:56:31;-2.40;99.90
5466;DHT22;2755;50.728;7.108;2022-12-18T10:59:09;-2.60;99.90
5466;DHT22;2755;50.728;7.108;2022-12-18T11:01:51;-2.40;99.90
5466;DHT22;2755;50.728;7.108;2022-12-18T11:04:22;-2.40;99.90
5466;DHT22;2755;50.728;7.108;2022-12-18T11:09:33;-2.40;99.90
5466;DHT22;2755;50.728;7.108;2022-12-18T11:12:01;-2.00;99.90
5466;DHT22;2755;50.728;7.108;2022-12-18T11:14:28;-2.00;99.90
5466;DHT22;2755;50.728;7.108;2022-12-18T11:16:55;-2.20;99.90
5466;DHT22;2755;50.728;7.108;2022-12-18T11:21:59;-2.30;99.90
5466;DHT22;2755;50.728;7.108;2022-12-18T11:26:55;-2.70;99.90
5466;DHT22;2755;50.728;7.108;2022-12-18T11:29:37;-2.70;99.90
5466;DHT22;2755;50.728;7.108;2022-12-18T11:34:44;-2.40;99.90
5466;DHT22;2755;50.728;7.108;2022-12-18T11:37:12;-2.20;99.90
5466;DHT22;2755;50.728;7.108;2022-12-18T11:39:45;-2.60;99.90
5466;DHT22;2755;50.728;7.108;2022-12-18T11:42:25;-2.50;99.90
5466;DHT22;2755;50.728;7.108;2022-12-18T11:44:58;-2.30;99.90
5466;DHT22;2755;50.728;7.108;2022-12-18T11:47:37;-2.20;99.90
5466;DHT22;2755;50.728;7.108;2022-12-18T11:50:14;-2.40;99.90
5466;DHT22;2755;50.728;7.108;2022-12-18T11:52:41;-1.80;99.90
5466;DHT22;2755;50.728;7.108;2022-12-18T12:09:25;-2.40;99.90
5466;DHT22;2755;50.728;7.108;2022-12-18T12:22:49;-2.10;99.90
5466;DHT22;2755;50.728;7.108;2022-12-18T12:25:29;-2.50;99.90
5466;DHT22;2755;50.728;7.108;2022-12-18T12:31:12;-2.20;99.90
5466;DHT22;2755;50.728;7.108;2022-12-18T12:34:01;-1.70;99.90
5466;DHT22;2755;50.728;7.108;2022-12-18T12:36:58;-2.50;99.90
5466;DHT22;2755;50.728;7.108;2022-12-18T12:39:36;-2.60;99.90
5466;DHT22;2755;50.728;7.108;2022-12-18T12:42:04;-1.90;99.90
5466;DHT22;2755;50.728;7.108;2022-12-18T12:44:56;-2.50;99.90
5466;DHT22;2755;50.728;7.108;2022-12-18T12:47:32;-2.20;99.90
5466;DHT22;2755;50.728;7.108;2022-12-18T12:50:01;-2.40;99.90
5466;DHT22;2755;50.728;7.108;2022-12-18T12:52:35;-2.20;99.90
5466;DHT22;2755;50.728;7.108;2022-12-18T12:55:04;-2.10;99.90
5466;DHT22;2755;50.728;7.108;2022-12-18T13:00:17;-2.60;99.90
5466;DHT22;2755;50.728;7.108;2022-12-18T13:05:23;-2.10;99.90
5466;DHT22;2755;50.728;7.108;2022-12-18T13:07:54;-2.20;99.90
5466;DHT22;2755;50.728;7.108;2022-12-18T13:10:31;-1.20;99.90
5466;DHT22;2755;50.728;7.108;2022-12-18T13:15:42;-1.80;99.90
5466;DHT22;2755;50.728;7.108;2022-12-18T13:20:40;-1.80;99.90
5466;DHT22;2755;50.728;7.108;2022-12-18T13:23:38;-1.40;99.90
5466;DHT22;2755;50.728;7.108;2022-12-18T13:34:19;-1.70;99.90
5466;DHT22;2755;50.728;7.108;2022-12-18T13:36:45;-1.80;99.90
5466;DHT22;2755;50.728;7.108;2022-12-18T13:41:44;-1.90;99.90
5466;DHT22;2755;50.728;7.108;2022-12-18T13:46:48;-1.90;99.90
5466;DHT22;2755;50.728;7.108;2022-12-18T13:51:55;-2.60;99.90
5466;DHT22;2755;50.728;7.108;2022-12-18T13:54:33;-2.10;99.90
5466;DHT22;2755;50.728;7.108;2022-12-18T13:57:00;-2.10;99.90
5466;DHT22;2755;50.728;7.108;2022-12-18T13:59:39;-2.10;99.90
5466;DHT22;2755;50.728;7.108;2022-12-18T14:02:21;-1.90;99.90
5466;DHT22;2755;50.728;7.108;2022-12-18T14:04:48;-2.10;99.90
5466;DHT22;2755;50.728;7.108;2022-12-18T14:07:18;-2.30;99.90
5466;DHT22;2755;50.728;7.108;2022-12-18T14:09:47;-2.20;99.90
5466;DHT22;2755;50.728;7.108;2022-12-18T14:18:03;-2.20;99.90
5466;DHT22;2755;50.728;7.108;2022-12-18T14:20:35;-2.20;99.90
5466;DHT22;2755;50.728;7.108;2022-12-18T14:23:01;-2.20;99.90
5466;DHT22;2755;50.728;7.108;2022-12-18T14:25:29;-2.20;99.90
5466;DHT22;2755;50.728;7.108;2022-12-18T14:30:43;-2.20;99.90
5466;DHT22;2755;50.728;7.108;2022-12-18T14:33:11;-2.10;99.90
5466;DHT22;2755;50.728;7.108;2022-12-18T14:35:39;-2.30;99.90
5466;DHT22;2755;50.728;7.108;2022-12-18T14:41:01;-2.30;99.90
5466;DHT22;2755;50.728;7.108;2022-12-18T14:43:29;-2.30;99.90
5466;DHT22;2755;50.728;7.108;2022-12-18T14:45:56;-2.30;99.90
5466;DHT22;2755;50.728;7.108;2022-12-18T14:48:36;-2.90;99.90
5466;DHT22;2755;50.728;7.108;2022-12-18T14:51:06;-2.30;99.90
5466;DHT22;2755;50.728;7.108;2022-12-18T14:53:35;-2.20;99.90
5466;DHT22;2755;50.728;7.108;2022-12-18T14:56:03;-2.30;99.90
5466;DHT22;2755;50.728;7.108;2022-12-18T14:58:35;-2.40;99.90
5466;DHT22;2755;50.728;7.108;2022-12-18T15:01:01;-2.30;99.90
5466;DHT22;2755;50.728;7.108;2022-12-18T15:03:26;-2.30;99.90
5466;DHT22;2755;50.728;7.108;2022-12-18T15:08:35;-2.50;99.90
5466;DHT22;2755;50.728;7.108;2022-12-18T15:11:01;-2.10;99.90
5466;DHT22;2755;50.728;7.108;2022-12-18T15:13:27;-3.20;99.90
5466;DHT22;2755;50.728;7.108;2022-12-18T15:15:55;-2.40;99.90
5466;DHT22;2755;50.728;7.108;2022-12-18T15:18:29;-2.70;99.90
5466;DHT22;2755;50.728;7.108;2022-12-18T15:20:59;-2.50;99.90
5466;DHT22;2755;50.728;7.108;2022-12-18T15:26:04;-3.60;99.90
5466;DHT22;2755;50.728;7.108;2022-12-18T15:28:39;-2.50;99.90
5466;DHT22;2755;50.728;7.108;2022-12-18T15:33:42;-2.40;99.90
5466;DHT22;2755;50.728;7.108;2022-12-18T15:36:11;-2.60;99.90
5466;DHT22;2755;50.728;7.108;2022-12-18T15:38:37;-2.50;99.90
5466;DHT22;2755;50.728;7.108;2022-12-18T15:41:06;-2.20;99.90
5466;DHT22;2755;50.728;7.108;2022-12-18T15:43:38;-2.50;99.90
5466;DHT22;2755;50.728;7.108;2022-12-18T15:46:11;-2.50;99.90
5466;DHT22;2755;50.728;7.108;2022-12-18T15:48:42;-2.40;99.90
5466;DHT22;2755;50.728;7.108;2022-12-18T15:51:31;-2.50;99.90
5466;DHT22;2755;50.728;7.108;2022-12-18T15:54:00;-2.50;99.90
5466;DHT22;2755;50.728;7.108;2022-12-18T15:56:26;-2.60;99.90
5466;DHT22;2755;50.728;7.108;2022-12-18T15:59:15;-2.40;99.90
5466;DHT22;2755;50.728;7.108;2022-12-18T16:01:42;-2.10;99.90
5466;DHT22;2755;50.728;7.108;2022-12-18T16:04:13;-2.30;99.90
5466;DHT22;2755;50.728;7.108;2022-12-18T16:06:39;-2.50;99.90
5466;DHT22;2755;50.728;7.108;2022-12-18T16:09:05;-2.80;99.90
5466;DHT22;2755;50.728;7.108;2022-12-18T16:11:32;-2.00;99.90
5466;DHT22;2755;50.728;7.108;2022-12-18T16:14:12;-2.10;99.90
5466;DHT22;2755;50.728;7.108;2022-12-18T16:16:40;-2.50;99.90
5466;DHT22;2755;50.728;7.108;2022-12-18T16:19:07;-2.50;99.90
5466;DHT22;2755;50.728;7.108;2022-12-18T16:23:58;-2.80;99.90
5466;DHT22;2755;50.728;7.108;2022-12-18T16:26:24;-2.90;99.90
5466;DHT22;2755;50.728;7.108;2022-12-18T16:28:49;-2.30;99.90
5466;DHT22;2755;50.728;7.108;2022-12-18T16:31:15;-2.60;99.90
5466;DHT22;2755;50.728;7.108;2022-12-18T16:33:41;-2.30;99.90
5466;DHT22;2755;50.728;7.108;2022-12-18T16:36:06;-2.60;99.90
5466;DHT22;2755;50.728;7.108;2022-12-18T16:38:33;-2.80;99.90
5466;DHT22;2755;50.728;7.108;2022-12-18T16:40:58;-2.70;99.90
5466;DHT22;2755;50.728;7.108;2022-12-18T16:43:42;-2.60;99.90
5466;DHT22;2755;50.728;7.108;2022-12-18T16:46:08;-2.60;99.90
5466;DHT22;2755;50.728;7.108;2022-12-18T16:48:34;-2.40;99.90
5466;DHT22;2755;50.728;7.108;2022-12-18T16:51:01;-2.60;99.90
5466;DHT22;2755;50.728;7.108;2022-12-18T16:53:31;-2.90;99.90
5466;DHT22;2755;50.728;7.108;2022-12-18T16:55:57;-2.20;99.90
5466;DHT22;2755;50.728;7.108;2022-12-18T16:58:23;-2.30;99.90
5466;DHT22;2755;50.728;7.108;2022-12-18T17:00:48;-2.70;99.90
5466;DHT22;2755;50.728;7.108;2022-12-18T17:03:14;-2.20;99.90
5466;DHT22;2755;50.728;7.108;2022-12-18T17:08:05;-2.50;99.90
5466;DHT22;2755;50.728;7.108;2022-12-18T17:10:34;-2.50;99.90
5466;DHT22;2755;50.728;7.108;2022-12-18T17:13:00;-3.00;99.90
5466;DHT22;2755;50.728;7.108;2022-12-18T17:15:25;-2.60;99.90
5466;DHT22;2755;50.728;7.108;2022-12-18T17:17:51;-2.70;99.90
5466;DHT22;2755;50.728;7.108;2022-12-18T17:20:16;-2.50;99.90
5466;DHT22;2755;50.728;7.108;2022-12-18T17:22:42;-2.90;99.90
5466;DHT22;2755;50.728;7.108;2022-12-18T17:25:08;-2.70;99.90
5466;DHT22;2755;50.728;7.108;2022-12-18T17:27:33;-2.00;99.90
5466;DHT22;2755;50.728;7.108;2022-12-18T17:29:59;-2.40;99.90
5466;DHT22;2755;50.728;7.108;2022-12-18T17:32:24;-2.90;99.90
5466;DHT22;2755;50.728;7.108;2022-12-18T17:34:50;-2.70;99.90
5466;DHT22;2755;50.728;7.108;2022-12-18T17:37:16;-2.70;99.90
5466;DHT22;2755;50.728;7.108;2022-12-18T17:39:41;-3.00;99.90
5466;DHT22;2755;50.728;7.108;2022-12-18T17:42:07;-3.00;99.90
5466;DHT22;2755;50.728;7.108;2022-12-18T17:44:35;-2.30;99.90
5466;DHT22;2755;50.728;7.108;2022-12-18T17:47:01;-2.70;99.90
5466;DHT22;2755;50.728;7.108;2022-12-18T17:51:52;-2.50;99.90
5466;DHT22;2755;50.728;7.108;2022-12-18T17:54:18;-2.70;99.90
5466;DHT22;2755;50.728;7.108;2022-12-18T17:56:44;-2.70;99.90
5466;DHT22;2755;50.728;7.108;2022-12-18T17:59:09;-2.70;99.90
5466;DHT22;2755;50.728;7.108;2022-12-18T18:01:35;-2.80;99.90
5466;DHT22;2755;50.728;7.108;2022-12-18T18:04:02;-2.80;99.90
5466;DHT22;2755;50.728;7.108;2022-12-18T18:08:54;-2.70;99.90
5466;DHT22;2755;50.728;7.108;2022-12-18T18:11:21;-2.80;99.90
5466;DHT22;2755;50.728;7.108;2022-12-18T18:14:15;-2.80;99.90
5466;DHT22;2755;50.728;7.108;2022-12-18T18:16:44;-2.70;99.90
5466;DHT22;2755;50.728;7.108;2022-12-18T18:19:13;-2.90;99.90
5466;DHT22;2755;50.728;7.108;2022-12-18T18:21:40;-2.80;99.90
5466;DHT22;2755;50.728;7.108;2022-12-18T18:24:07;-2.80;99.90
5466;DHT22;2755;50.728;7.108;2022-12-18T18:26:34;-3.00;99.90
5466;DHT22;2755;50.728;7.108;2022-12-18T18:29:01;-2.60;99.90
5466;DHT22;2755;50.728;7.108;2022-12-18T18:31:28;-2.80;99.90
5466;DHT22;2755;50.728;7.108;2022-12-18T18:33:55;-2.70;99.90
5466;DHT22;2755;50.728;7.108;2022-12-18T18:36:22;-2.70;99.90
5466;DHT22;2755;50.728;7.108;2022-12-18T18:38:48;-2.50;99.90
5466;DHT22;2755;50.728;7.108;2022-12-18T18:41:14;-2.70;99.90
5466;DHT22;2755;50.728;7.108;2022-12-18T18:46:05;-2.50;99.90
5466;DHT22;2755;50.728;7.108;2022-12-18T18:48:33;-2.60;99.90
5466;DHT22;2755;50.728;7.108;2022-12-18T18:51:09;-2.70;99.90
5466;DHT22;2755;50.728;7.108;2022-12-18T18:53:40;-2.70;99.90
5466;DHT22;2755;50.728;7.108;2022-12-18T18:56:07;-2.60;99.90
5466;DHT22;2755;50.728;7.108;2022-12-18T18:58:33;-2.40;99.90
5466;DHT22;2755;50.728;7.108;2022-12-18T19:01:01;-2.40;99.90
5466;DHT22;2755;50.728;7.108;2022-12-18T19:03:27;-2.20;99.90
5466;DHT22;2755;50.728;7.108;2022-12-18T19:05:55;-2.50;99.90
5466;DHT22;2755;50.728;7.108;2022-12-18T19:08:33;-2.70;99.90
5466;DHT22;2755;50.728;7.108;2022-12-18T19:11:00;-2.50;99.90
5466;DHT22;2755;50.728;7.108;2022-12-18T19:13:29;-2.80;99.90
5466;DHT22;2755;50.728;7.108;2022-12-18T19:16:06;-2.40;99.90
5466;DHT22;2755;50.728;7.108;2022-12-18T19:18:33;-2.70;99.90
5466;DHT22;2755;50.728;7.108;2022-12-18T19:21:01;-2.30;99.90
5466;DHT22;2755;50.728;7.108;2022-12-18T19:25:53;-2.60;99.90
5466;DHT22;2755;50.728;7.108;2022-12-18T19:28:21;-2.00;99.90
5466;DHT22;2755;50.728;7.108;2022-12-18T19:30:54;-2.90;99.90
5466;DHT22;2755;50.728;7.108;2022-12-18T19:33:21;-2.20;99.90